sensor_id;sensor_type;location;lat;lon;timestamp;pressure;altitude;pressure_sealevel;temperature;humidity
68994;BME280;56054;50.968;5.816;2023-05-11T00:01:43;100608.47;;;13.03;100.00
68994;BME280;56054;50.968;5.816;2023-05-11T00:04:43;100620.38;;;12.98;100.00
68994;BME280;56054;50.968;5.816;2023-05-11T00:07:44;100615.56;;;13.05;100.00
68994;BME280;56054;50.968;5.816;2023-05-11T00:10:47;100618.28;;;12.91;100.00
68994;BME280;56054;50.968;5.816;2023-05-11T00:13:47;100613.13;;;12.92;100.00
68994;BME280;56054;50.968;5.816;2023-05-11T00:16:48;100610.47;;;12.91;100.00
68994;BME280;56054;50.968;5.816;2023-05-11T00:19:48;100614.03;;;12.93;100.00
68994;BME280;56054;50.968;5.816;2023-05-11T00:22:49;100617.84;;;12.99;100.00
68994;BME280;56054;50.968;5.816;2023-05-11T00:25:49;100608.00;;;12.94;100.00
68994;BME280;56054;50.968;5.816;2023-05-11T00:28:49;100606.03;;;12.90;100.00
68994;BME280;56054;50.968;5.816;2023-05-11T00:31:50;100614.09;;;12.94;100.00
68994;BME280;56054;50.968;5.816;2023-05-11T00:34:50;100610.59;;;12.94;100.00
68994;BME280;56054;50.968;5.816;2023-05-11T00:37:51;100613.75;;;13.04;100.00
68994;BME280;56054;50.968;5.816;2023-05-11T00:40:51;100611.97;;;13.03;100.00
68994;BME280;56054;50.968;5.816;2023-05-11T00:43:52;100612.38;;;13.11;100.00
68994;BME280;56054;50.968;5.816;2023-05-11T00:46:52;100612.50;;;13.14;100.00
68994;BME280;56054;50.968;5.816;2023-05-11T00:49:53;100599.47;;;13.14;100.00
68994;BME280;56054;50.968;5.816;2023-05-11T00:52:57;100601.31;;;12.99;100.00
68994;BME280;56054;50.968;5.816;2023-05-11T00:55:58;100607.50;;;13.01;100.00
68994;BME280;56054;50.968;5.816;2023-05-11T00:58:58;100608.50;;;12.87;100.00
68994;BME280;56054;50.968;5.816;2023-05-11T01:01:59;100601.94;;;12.95;100.00
68994;BME280;56054;50.968;5.816;2023-05-11T01:05:00;100611.19;;;12.88;100.00
68994;BME280;56054;50.968;5.816;2023-05-11T01:08:11;100606.53;;;12.82;100.00
68994;BME280;56054;50.968;5.816;2023-05-11T01:11:27;100609.31;;;12.85;100.00
68994;BME280;56054;50.968;5.816;2023-05-11T01:20:46;100611.75;;;12.99;100.00
68994;BME280;56054;50.968;5.816;2023-05-11T01:27:47;100613.34;;;12.97;100.00
68994;BME280;56054;50.968;5.816;2023-05-11T01:30:35;100611.25;;;12.90;100.00
68994;BME280;56054;50.968;5.816;2023-05-11T01:33:55;100608.50;;;12.87;100.00
68994;BME280;56054;50.968;5.816;2023-05-11T01:40:53;100617.09;;;13.02;100.00
68994;BME280;56054;50.968;5.816;2023-05-11T01:47:54;100614.31;;;13.15;100.00
68994;BME280;56054;50.968;5.816;2023-05-11T01:50:59;100611.25;;;13.24;100.00
68994;BME280;56054;50.968;5.816;2023-05-11T01:54:01;100613.81;;;13.22;100.00
68994;BME280;56054;50.968;5.816;2023-05-11T01:57:03;100608.72;;;13.07;100.00
68994;BME280;56054;50.968;5.816;2023-05-11T02:00:04;100606.25;;;13.11;100.00
68994;BME280;56054;50.968;5.816;2023-05-11T02:03:14;100618.66;;;13.15;100.00
68994;BME280;56054;50.968;5.816;2023-05-11T02:06:16;100617.44;;;13.26;100.00
68994;BME280;56054;50.968;5.816;2023-05-11T02:09:20;100617.44;;;13.26;100.00
68994;BME280;56054;50.968;5.816;2023-05-11T02:12:21;100624.31;;;13.24;100.00
68994;BME280;56054;50.968;5.816;2023-05-11T02:15:23;100630.03;;;13.33;100.00
68994;BME280;56054;50.968;5.816;2023-05-11T02:18:27;100631.72;;;12.98;100.00
68994;BME280;56054;50.968;5.816;2023-05-11T02:21:31;100625.50;;;13.13;100.00
68994;BME280;56054;50.968;5.816;2023-05-11T02:24:47;100623.41;;;13.23;100.00
68994;BME280;56054;50.968;5.816;2023-05-11T02:27:48;100631.00;;;13.19;100.00
68994;BME280;56054;50.968;5.816;2023-05-11T02:30:51;100622.22;;;13.17;100.00
68994;BME280;56054;50.968;5.816;2023-05-11T02:33:56;100633.38;;;13.31;100.00
68994;BME280;56054;50.968;5.816;2023-05-11T02:37:01;100632.72;;;13.35;100.00
68994;BME280;56054;50.968;5.816;2023-05-11T02:40:15;100630.44;;;13.24;100.00
68994;BME280;56054;50.968;5.816;2023-05-11T02:43:23;100640.69;;;13.38;100.00
68994;BME280;56054;50.968;5.816;2023-05-11T02:46:32;100641.06;;;13.27;100.00
68994;BME280;56054;50.968;5.816;2023-05-11T02:49:37;100635.34;;;13.35;100.00
68994;BME280;56054;50.968;5.816;2023-05-11T02:52:44;100633.53;;;13.34;100.00
68994;BME280;56054;50.968;5.816;2023-05-11T02:55:45;100634.50;;;13.36;100.00
68994;BME280;56054;50.968;5.816;2023-05-11T02:58:47;100630.59;;;13.44;100.00
68994;BME280;56054;50.968;5.816;2023-05-11T03:01:55;100622.28;;;13.53;100.00
68994;BME280;56054;50.968;5.816;2023-05-11T03:04:56;100628.25;;;13.50;100.00
68994;BME280;56054;50.968;5.816;2023-05-11T03:07:57;100624.09;;;13.54;100.00
68994;BME280;56054;50.968;5.816;2023-05-11T03:10:59;100624.06;;;13.36;100.00
68994;BME280;56054;50.968;5.816;2023-05-11T03:14:00;100626.75;;;13.21;100.00
68994;BME280;56054;50.968;5.816;2023-05-11T03:17:02;100609.56;;;13.24;100.00
68994;BME280;56054;50.968;5.816;2023-05-11T03:20:05;100620.06;;;13.26;100.00
68994;BME280;56054;50.968;5.816;2023-05-11T03:23:06;100616.28;;;13.19;100.00
68994;BME280;56054;50.968;5.816;2023-05-11T03:26:10;100618.69;;;13.33;100.00
68994;BME280;56054;50.968;5.816;2023-05-11T03:29:14;100617.69;;;13.47;100.00
68994;BME280;56054;50.968;5.816;2023-05-11T03:38:47;100612.00;;;13.21;100.00
68994;BME280;56054;50.968;5.816;2023-05-11T03:41:52;100608.47;;;13.03;100.00
68994;BME280;56054;50.968;5.816;2023-05-11T03:44:54;100611.16;;;13.04;100.00
68994;BME280;56054;50.968;5.816;2023-05-11T03:47:56;100617.06;;;13.18;100.00
68994;BME280;56054;50.968;5.816;2023-05-11T03:50:57;100611.06;;;13.19;100.00
68994;BME280;56054;50.968;5.816;2023-05-11T03:53:58;100608.31;;;13.00;100.00
68994;BME280;56054;50.968;5.816;2023-05-11T03:56:58;100604.56;;;12.95;100.00
68994;BME280;56054;50.968;5.816;2023-05-11T03:59:59;100603.97;;;13.17;100.00
68994;BME280;56054;50.968;5.816;2023-05-11T04:03:03;100600.75;;;13.22;100.00
68994;BME280;56054;50.968;5.816;2023-05-11T04:06:04;100613.34;;;13.13;100.00
68994;BME280;56054;50.968;5.816;2023-05-11T04:09:04;100602.91;;;13.30;100.00
68994;BME280;56054;50.968;5.816;2023-05-11T04:12:05;100609.09;;;13.32;100.00
68994;BME280;56054;50.968;5.816;2023-05-11T04:15:06;100610.63;;;13.12;100.00
68994;BME280;56054;50.968;5.816;2023-05-11T04:18:06;100611.25;;;13.24;100.00
68994;BME280;56054;50.968;5.816;2023-05-11T04:21:07;100611.84;;;13.18;100.00
68994;BME280;56054;50.968;5.816;2023-05-11T04:24:07;100605.41;;;13.12;100.00
68994;BME280;56054;50.968;5.816;2023-05-11T04:27:08;100618.66;;;13.15;100.00
68994;BME280;56054;50.968;5.816;2023-05-11T04:30:08;100616.09;;;13.16;100.00
68994;BME280;56054;50.968;5.816;2023-05-11T04:33:09;100619.38;;;13.12;100.00
68994;BME280;56054;50.968;5.816;2023-05-11T04:36:13;100617.56;;;13.11;100.00
68994;BME280;56054;50.968;5.816;2023-05-11T04:39:13;100622.41;;;13.03;100.00
68994;BME280;56054;50.968;5.816;2023-05-11T04:42:15;100620.38;;;12.98;100.00
68994;BME280;56054;50.968;5.816;2023-05-11T04:45:18;100627.41;;;12.82;100.00
68994;BME280;56054;50.968;5.816;2023-05-11T04:48:19;100633.44;;;12.98;100.00
68994;BME280;56054;50.968;5.816;2023-05-11T04:51:20;100626.09;;;13.07;100.00
68994;BME280;56054;50.968;5.816;2023-05-11T04:54:20;100633.94;;;12.74;100.00
68994;BME280;56054;50.968;5.816;2023-05-11T04:57:23;100631.91;;;12.69;100.00
68994;BME280;56054;50.968;5.816;2023-05-11T05:00:24;100640.28;;;12.63;100.00
68994;BME280;56054;50.968;5.816;2023-05-11T05:03:24;100641.75;;;12.74;100.00
68994;BME280;56054;50.968;5.816;2023-05-11T05:06:24;100643.88;;;12.65;100.00
68994;BME280;56054;50.968;5.816;2023-05-11T05:09:25;100650.69;;;12.63;100.00
68994;BME280;56054;50.968;5.816;2023-05-11T05:12:28;100649.56;;;12.58;100.00
68994;BME280;56054;50.968;5.816;2023-05-11T05:15:29;100644.19;;;12.55;100.00
68994;BME280;56054;50.968;5.816;2023-05-11T05:18:29;100649.25;;;12.68;100.00
68994;BME280;56054;50.968;5.816;2023-05-11T05:21:30;100650.31;;;12.72;100.00
68994;BME280;56054;50.968;5.816;2023-05-11T05:24:30;100650.41;;;12.73;100.00
68994;BME280;56054;50.968;5.816;2023-05-11T05:27:31;100656.25;;;12.85;100.00
68994;BME280;56054;50.968;5.816;2023-05-11T05:30:31;100652.91;;;12.88;100.00
68994;BME280;56054;50.968;5.816;2023-05-11T05:33:33;100659.50;;;12.98;100.00
68994;BME280;56054;50.968;5.816;2023-05-11T05:36:33;100660.41;;;12.98;100.00
68994;BME280;56054;50.968;5.816;2023-05-11T05:39:34;100669.13;;;12.99;100.00
68994;BME280;56054;50.968;5.816;2023-05-11T05:42:35;100668.03;;;13.12;100.00
68994;BME280;56054;50.968;5.816;2023-05-11T05:45:35;100674.66;;;13.05;100.00
68994;BME280;56054;50.968;5.816;2023-05-11T05:48:36;100669.50;;;13.06;100.00
68994;BME280;56054;50.968;5.816;2023-05-11T05:51:37;100676.88;;;12.97;100.00
68994;BME280;56054;50.968;5.816;2023-05-11T05:54:37;100688.75;;;13.09;100.00
68994;BME280;56054;50.968;5.816;2023-05-11T05:57:38;100697.16;;;13.03;100.00
68994;BME280;56054;50.968;5.816;2023-05-11T06:00:39;100686.78;;;13.04;100.00
68994;BME280;56054;50.968;5.816;2023-05-11T06:03:43;100696.97;;;13.16;100.00
68994;BME280;56054;50.968;5.816;2023-05-11T06:06:43;100694.78;;;13.07;100.00
68994;BME280;56054;50.968;5.816;2023-05-11T06:09:44;100703.13;;;13.17;100.00
68994;BME280;56054;50.968;5.816;2023-05-11T06:12:48;100696.09;;;12.99;100.00
68994;BME280;56054;50.968;5.816;2023-05-11T06:15:49;100699.44;;;13.13;100.00
68994;BME280;56054;50.968;5.816;2023-05-11T06:18:58;100711.97;;;13.20;100.00
68994;BME280;56054;50.968;5.816;2023-05-11T06:22:00;100700.19;;;13.27;100.00
68994;BME280;56054;50.968;5.816;2023-05-11T06:25:00;100706.59;;;13.17;100.00
68994;BME280;56054;50.968;5.816;2023-05-11T06:28:02;100707.19;;;13.28;100.00
68994;BME280;56054;50.968;5.816;2023-05-11T06:31:03;100708.91;;;13.27;100.00
68994;BME280;56054;50.968;5.816;2023-05-11T06:34:07;100708.72;;;13.08;100.00
68994;BME280;56054;50.968;5.816;2023-05-11T06:37:15;100704.97;;;13.19;100.00
68994;BME280;56054;50.968;5.816;2023-05-11T06:40:19;100710.34;;;13.22;100.00
68994;BME280;56054;50.968;5.816;2023-05-11T06:43:19;100714.28;;;13.31;100.00
68994;BME280;56054;50.968;5.816;2023-05-11T06:46:22;100711.97;;;13.20;100.00
68994;BME280;56054;50.968;5.816;2023-05-11T06:49:22;100704.25;;;13.05;100.00
68994;BME280;56054;50.968;5.816;2023-05-11T06:52:23;100710.75;;;13.14;100.00
68994;BME280;56054;50.968;5.816;2023-05-11T06:55:23;100706.59;;;13.17;100.00
68994;BME280;56054;50.968;5.816;2023-05-11T06:58:23;100711.19;;;13.05;100.00
68994;BME280;56054;50.968;5.816;2023-05-11T07:01:24;100714.03;;;13.10;100.00
68994;BME280;56054;50.968;5.816;2023-05-11T07:04:24;100716.38;;;13.21;100.00
68994;BME280;56054;50.968;5.816;2023-05-11T07:07:25;100708.72;;;13.24;100.00
68994;BME280;56054;50.968;5.816;2023-05-11T07:10:25;100713.28;;;13.28;100.00
68994;BME280;56054;50.968;5.816;2023-05-11T07:13:26;100718.69;;;13.15;100.00
68994;BME280;56054;50.968;5.816;2023-05-11T07:16:26;100720.22;;;13.28;100.00
68994;BME280;56054;50.968;5.816;2023-05-11T07:19:26;100723.31;;;13.21;100.00
68994;BME280;56054;50.968;5.816;2023-05-11T07:22:27;100717.94;;;13.18;100.00
68994;BME280;56054;50.968;5.816;2023-05-11T07:25:28;100721.47;;;13.35;100.00
68994;BME280;56054;50.968;5.816;2023-05-11T07:28:29;100720.81;;;13.39;100.00
68994;BME280;56054;50.968;5.816;2023-05-11T07:31:29;100723.09;;;13.33;100.00
68994;BME280;56054;50.968;5.816;2023-05-11T07:34:29;100725.69;;;13.49;100.00
68994;BME280;56054;50.968;5.816;2023-05-11T07:37:30;100725.34;;;13.43;100.00
68994;BME280;56054;50.968;5.816;2023-05-11T07:40:30;100734.16;;;13.45;100.00
68994;BME280;56054;50.968;5.816;2023-05-11T07:43:31;100729.06;;;13.64;100.00
68994;BME280;56054;50.968;5.816;2023-05-11T07:46:31;100727.41;;;13.66;100.00
68994;BME280;56054;50.968;5.816;2023-05-11T07:49:34;100736.63;;;13.76;100.00
68994;BME280;56054;50.968;5.816;2023-05-11T07:52:37;100729.41;;;13.54;100.00
68994;BME280;56054;50.968;5.816;2023-05-11T07:55:37;100726.59;;;13.67;100.00
68994;BME280;56054;50.968;5.816;2023-05-11T07:58:38;100719.13;;;13.57;100.00
68994;BME280;56054;50.968;5.816;2023-05-11T08:01:38;100723.91;;;13.66;100.00
68994;BME280;56054;50.968;5.816;2023-05-11T08:04:39;100729.41;;;13.54;100.00
68994;BME280;56054;50.968;5.816;2023-05-11T08:07:47;100731.81;;;13.67;100.00
68994;BME280;56054;50.968;5.816;2023-05-11T08:10:48;100731.16;;;13.72;100.00
68994;BME280;56054;50.968;5.816;2023-05-11T08:13:48;100733.63;;;13.68;100.00
68994;BME280;56054;50.968;5.816;2023-05-11T08:16:51;100735.03;;;13.45;100.00
68994;BME280;56054;50.968;5.816;2023-05-11T08:19:51;100734.13;;;13.61;100.00
68994;BME280;56054;50.968;5.816;2023-05-11T08:23:09;100735.25;;;13.66;100.00
68994;BME280;56054;50.968;5.816;2023-05-11T08:26:09;100735.91;;;13.62;100.00
68994;BME280;56054;50.968;5.816;2023-05-11T08:36:03;100729.06;;;13.64;100.00
68994;BME280;56054;50.968;5.816;2023-05-11T08:39:04;100735.03;;;13.80;100.00
68994;BME280;56054;50.968;5.816;2023-05-11T08:42:05;100737.78;;;13.65;100.00
68994;BME280;56054;50.968;5.816;2023-05-11T08:45:06;100733.03;;;13.92;100.00
68994;BME280;56054;50.968;5.816;2023-05-11T08:48:06;100731.13;;;13.88;100.00
68994;BME280;56054;50.968;5.816;2023-05-11T08:51:08;100735.31;;;14.02;100.00
68994;BME280;56054;50.968;5.816;2023-05-11T08:54:08;100742.00;;;13.97;100.00
68994;BME280;56054;50.968;5.816;2023-05-11T08:57:09;100741.47;;;13.86;100.00
68994;BME280;56054;50.968;5.816;2023-05-11T09:00:10;100746.41;;;13.80;100.00
68994;BME280;56054;50.968;5.816;2023-05-11T09:03:11;100753.31;;;13.80;100.00
68994;BME280;56054;50.968;5.816;2023-05-11T09:06:13;100749.75;;;13.78;100.00
68994;BME280;56054;50.968;5.816;2023-05-11T09:09:14;100756.63;;;13.94;100.00
68994;BME280;56054;50.968;5.816;2023-05-11T09:12:15;100749.41;;;13.88;100.00
68994;BME280;56054;50.968;5.816;2023-05-11T09:15:16;100760.22;;;14.13;100.00
68994;BME280;56054;50.968;5.816;2023-05-11T09:18:16;100760.31;;;14.15;100.00
68994;BME280;56054;50.968;5.816;2023-05-11T09:21:18;100760.31;;;14.15;100.00
68994;BME280;56054;50.968;5.816;2023-05-11T09:24:19;100758.59;;;13.98;100.00
68994;BME280;56054;50.968;5.816;2023-05-11T09:27:25;100760.53;;;14.20;100.00
68994;BME280;56054;50.968;5.816;2023-05-11T09:30:26;100764.34;;;14.08;100.00
68994;BME280;56054;50.968;5.816;2023-05-11T09:33:26;100757.63;;;14.31;100.00
68994;BME280;56054;50.968;5.816;2023-05-11T09:36:28;100755.75;;;14.29;100.00
68994;BME280;56054;50.968;5.816;2023-05-11T09:39:30;100755.75;;;14.11;100.00
68994;BME280;56054;50.968;5.816;2023-05-11T09:42:31;100750.66;;;13.96;100.00
68994;BME280;56054;50.968;5.816;2023-05-11T09:45:46;100762.00;;;13.79;100.00
68994;BME280;56054;50.968;5.816;2023-05-11T09:48:57;100756.50;;;13.90;100.00
68994;BME280;56054;50.968;5.816;2023-05-11T09:52:00;100760.66;;;13.87;100.00
68994;BME280;56054;50.968;5.816;2023-05-11T09:55:09;100762.22;;;14.01;100.00
68994;BME280;56054;50.968;5.816;2023-05-11T09:58:09;100756.94;;;14.18;100.00
68994;BME280;56054;50.968;5.816;2023-05-11T10:01:10;100758.59;;;14.16;100.00
68994;BME280;56054;50.968;5.816;2023-05-11T10:04:10;100760.69;;;14.23;100.00
68994;BME280;56054;50.968;5.816;2023-05-11T10:07:24;100759.50;;;14.34;100.00
68994;BME280;56054;50.968;5.816;2023-05-11T10:10:26;100761.06;;;14.12;100.00
68994;BME280;56054;50.968;5.816;2023-05-11T10:13:28;100763.59;;;14.11;100.00
68994;BME280;56054;50.968;5.816;2023-05-11T10:16:30;100765.97;;;14.06;100.00
68994;BME280;56054;50.968;5.816;2023-05-11T10:19:31;100768.94;;;13.96;100.00
68994;BME280;56054;50.968;5.816;2023-05-11T10:25:38;100762.84;;;13.96;100.00
68994;BME280;56054;50.968;5.816;2023-05-11T10:35:02;100752.94;;;14.24;100.00
68994;BME280;56054;50.968;5.816;2023-05-11T10:38:05;100757.75;;;14.17;100.00
68994;BME280;56054;50.968;5.816;2023-05-11T10:41:15;100756.78;;;14.32;100.00
68994;BME280;56054;50.968;5.816;2023-05-11T10:54:35;100754.78;;;14.63;100.00
68994;BME280;56054;50.968;5.816;2023-05-11T11:01:17;100744.97;;;14.76;100.00
68994;BME280;56054;50.968;5.816;2023-05-11T11:04:19;100752.97;;;14.99;100.00
68994;BME280;56054;50.968;5.816;2023-05-11T11:07:20;100751.84;;;14.94;100.00
68994;BME280;56054;50.968;5.816;2023-05-11T11:10:30;100745.44;;;15.07;100.00
68994;BME280;56054;50.968;5.816;2023-05-11T11:13:58;100755.53;;;15.36;100.00
68994;BME280;56054;50.968;5.816;2023-05-11T11:20:46;100751.75;;;15.51;100.00
68994;BME280;56054;50.968;5.816;2023-05-11T11:23:48;100750.19;;;15.54;100.00
68994;BME280;56054;50.968;5.816;2023-05-11T11:26:49;100747.47;;;15.53;100.00
68994;BME280;56054;50.968;5.816;2023-05-11T11:36:14;100746.59;;;15.72;100.00
68994;BME280;56054;50.968;5.816;2023-05-11T11:39:18;100748.31;;;15.52;100.00
68994;BME280;56054;50.968;5.816;2023-05-11T11:42:35;100732.94;;;15.59;100.00
68994;BME280;56054;50.968;5.816;2023-05-11T11:45:51;100739.91;;;15.78;100.00
68994;BME280;56054;50.968;5.816;2023-05-11T11:49:11;100734.56;;;15.77;100.00
68994;BME280;56054;50.968;5.816;2023-05-11T12:01:50;100747.00;;;15.81;100.00
68994;BME280;56054;50.968;5.816;2023-05-11T12:04:56;100740.13;;;15.84;100.00
68994;BME280;56054;50.968;5.816;2023-05-11T12:07:58;100744.16;;;15.76;99.67
68994;BME280;56054;50.968;5.816;2023-05-11T12:11:05;100736.06;;;16.12;98.93
68994;BME280;56054;50.968;5.816;2023-05-11T12:14:08;100733.00;;;16.24;98.66
68994;BME280;56054;50.968;5.816;2023-05-11T12:17:08;100730.94;;;16.15;99.66
68994;BME280;56054;50.968;5.816;2023-05-11T12:20:13;100738.25;;;16.24;100.00
68994;BME280;56054;50.968;5.816;2023-05-11T12:23:13;100721.72;;;16.04;97.94
68994;BME280;56054;50.968;5.816;2023-05-11T12:26:19;100719.56;;;16.15;98.59
68994;BME280;56054;50.968;5.816;2023-05-11T12:29:19;100715.78;;;16.08;99.32
68994;BME280;56054;50.968;5.816;2023-05-11T12:32:29;100723.38;;;16.02;99.11
68994;BME280;56054;50.968;5.816;2023-05-11T12:35:31;100715.28;;;15.96;98.72
68994;BME280;56054;50.968;5.816;2023-05-11T12:38:47;100716.75;;;16.10;98.91
68994;BME280;56054;50.968;5.816;2023-05-11T12:41:49;100711.13;;;16.01;97.18
68994;BME280;56054;50.968;5.816;2023-05-11T12:44:50;100712.50;;;16.14;97.16
68994;BME280;56054;50.968;5.816;2023-05-11T12:47:52;100723.06;;;16.38;95.03
68994;BME280;56054;50.968;5.816;2023-05-11T12:51:00;100725.84;;;16.63;94.32
68994;BME280;56054;50.968;5.816;2023-05-11T12:54:01;100715.78;;;16.53;93.64
68994;BME280;56054;50.968;5.816;2023-05-11T12:57:01;100713.59;;;16.86;93.74
68994;BME280;56054;50.968;5.816;2023-05-11T13:03:09;100711.69;;;16.82;91.48
68994;BME280;56054;50.968;5.816;2023-05-11T13:06:11;100700.59;;;16.89;90.30
68994;BME280;56054;50.968;5.816;2023-05-11T13:09:21;100698.91;;;17.16;89.20
68994;BME280;56054;50.968;5.816;2023-05-11T13:12:21;100698.44;;;17.51;91.90
68994;BME280;56054;50.968;5.816;2023-05-11T13:15:23;100698.81;;;17.13;90.03
68994;BME280;56054;50.968;5.816;2023-05-11T13:18:24;100690.84;;;17.09;91.50
68994;BME280;56054;50.968;5.816;2023-05-11T13:21:27;100688.16;;;17.33;88.98
68994;BME280;56054;50.968;5.816;2023-05-11T13:24:35;100683.84;;;17.36;88.66
68994;BME280;56054;50.968;5.816;2023-05-11T13:27:36;100683.72;;;17.57;89.79
68994;BME280;56054;50.968;5.816;2023-05-11T13:30:37;100688.44;;;17.41;89.88
68994;BME280;56054;50.968;5.816;2023-05-11T13:33:37;100685.59;;;17.35;87.86
68994;BME280;56054;50.968;5.816;2023-05-11T13:36:39;100686.31;;;17.31;87.63
68994;BME280;56054;50.968;5.816;2023-05-11T13:39:39;100681.63;;;17.46;88.35
68994;BME280;56054;50.968;5.816;2023-05-11T13:42:39;100678.94;;;17.45;86.99
68994;BME280;56054;50.968;5.816;2023-05-11T13:45:40;100673.75;;;17.46;84.58
68994;BME280;56054;50.968;5.816;2023-05-11T13:48:40;100668.38;;;17.69;86.96
68994;BME280;56054;50.968;5.816;2023-05-11T13:51:41;100666.69;;;17.71;86.57
68994;BME280;56054;50.968;5.816;2023-05-11T13:54:41;100664.88;;;17.70;85.93
68994;BME280;56054;50.968;5.816;2023-05-11T13:57:41;100666.03;;;17.78;83.94
68994;BME280;56054;50.968;5.816;2023-05-11T14:00:42;100674.19;;;17.60;83.06
68994;BME280;56054;50.968;5.816;2023-05-11T14:03:42;100657.34;;;17.28;84.59
68994;BME280;56054;50.968;5.816;2023-05-11T14:06:43;100657.53;;;17.60;85.35
68994;BME280;56054;50.968;5.816;2023-05-11T14:09:44;100658.06;;;18.29;87.04
68994;BME280;56054;50.968;5.816;2023-05-11T14:12:45;100655.72;;;18.11;84.93
68994;BME280;56054;50.968;5.816;2023-05-11T14:15:45;100656.25;;;18.28;84.20
68994;BME280;56054;50.968;5.816;2023-05-11T14:18:45;100652.72;;;18.28;83.92
68994;BME280;56054;50.968;5.816;2023-05-11T14:21:46;100660.59;;;17.99;84.09
68994;BME280;56054;50.968;5.816;2023-05-11T14:24:46;100656.31;;;17.48;84.26
68994;BME280;56054;50.968;5.816;2023-05-11T14:27:49;100654.72;;;17.53;84.50
68994;BME280;56054;50.968;5.816;2023-05-11T14:30:49;100649.03;;;17.67;82.92
68994;BME280;56054;50.968;5.816;2023-05-11T14:33:50;100646.94;;;17.57;82.92
68994;BME280;56054;50.968;5.816;2023-05-11T14:36:50;100652.19;;;17.57;83.03
68994;BME280;56054;50.968;5.816;2023-05-11T14:39:51;100649.97;;;17.69;83.41
68994;BME280;56054;50.968;5.816;2023-05-11T14:42:51;100640.94;;;17.61;83.21
68994;BME280;56054;50.968;5.816;2023-05-11T14:45:52;100642.38;;;17.51;85.15
68994;BME280;56054;50.968;5.816;2023-05-11T14:48:53;100643.19;;;17.50;82.99
68994;BME280;56054;50.968;5.816;2023-05-11T14:51:54;100641.28;;;17.71;82.19
68994;BME280;56054;50.968;5.816;2023-05-11T14:54:58;100633.41;;;17.46;82.21
68994;BME280;56054;50.968;5.816;2023-05-11T14:58:05;100635.47;;;17.54;81.28
68994;BME280;56054;50.968;5.816;2023-05-11T15:01:09;100641.28;;;17.71;81.62
68994;BME280;56054;50.968;5.816;2023-05-11T15:04:11;100642.78;;;17.63;83.03
68994;BME280;56054;50.968;5.816;2023-05-11T15:07:12;100636.44;;;17.57;83.54
68994;BME280;56054;50.968;5.816;2023-05-11T15:10:13;100635.00;;;17.66;82.01
68994;BME280;56054;50.968;5.816;2023-05-11T15:13:14;100620.97;;;17.66;83.85
68994;BME280;56054;50.968;5.816;2023-05-11T15:16:14;100638.91;;;17.79;82.89
68994;BME280;56054;50.968;5.816;2023-05-11T15:19:15;100634.72;;;17.84;83.44
68994;BME280;56054;50.968;5.816;2023-05-11T15:22:21;100630.75;;;17.44;80.90
68994;BME280;56054;50.968;5.816;2023-05-11T15:25:21;100629.13;;;17.75;82.03
68994;BME280;56054;50.968;5.816;2023-05-11T15:28:22;100631.47;;;17.66;83.83
68994;BME280;56054;50.968;5.816;2023-05-11T15:31:22;100636.84;;;17.96;85.67
68994;BME280;56054;50.968;5.816;2023-05-11T15:34:23;100643.00;;;17.96;82.94
68994;BME280;56054;50.968;5.816;2023-05-11T15:40:30;100630.03;;;17.75;82.79
68994;BME280;56054;50.968;5.816;2023-05-11T15:46:37;100628.22;;;17.73;82.32
68994;BME280;56054;50.968;5.816;2023-05-11T15:49:37;100630.38;;;17.59;82.56
68994;BME280;56054;50.968;5.816;2023-05-11T15:52:38;100630.41;;;17.86;83.89
68994;BME280;56054;50.968;5.816;2023-05-11T15:55:38;100629.91;;;17.71;83.42
68994;BME280;56054;50.968;5.816;2023-05-11T15:58:39;100637.88;;;17.74;83.55
68994;BME280;56054;50.968;5.816;2023-05-11T16:01:39;100642.72;;;17.36;84.82
68994;BME280;56054;50.968;5.816;2023-05-11T16:04:40;100641.38;;;17.47;83.76
68994;BME280;56054;50.968;5.816;2023-05-11T16:07:40;100636.09;;;17.47;84.49
68994;BME280;56054;50.968;5.816;2023-05-11T16:10:40;100636.56;;;17.34;84.07
68994;BME280;56054;50.968;5.816;2023-05-11T16:13:41;100627.69;;;17.58;82.89
68994;BME280;56054;50.968;5.816;2023-05-11T16:16:41;100630.44;;;17.61;84.90
68994;BME280;56054;50.968;5.816;2023-05-11T16:19:42;100634.53;;;17.80;85.88
68994;BME280;56054;50.968;5.816;2023-05-11T16:22:42;100635.13;;;17.44;84.32
68994;BME280;56054;50.968;5.816;2023-05-11T16:25:43;100630.25;;;17.29;87.03
68994;BME280;56054;50.968;5.816;2023-05-11T16:28:43;100631.81;;;17.49;86.76
68994;BME280;56054;50.968;5.816;2023-05-11T16:31:44;100631.00;;;17.26;84.99
68994;BME280;56054;50.968;5.816;2023-05-11T16:34:50;100627.28;;;17.45;87.66
68994;BME280;56054;50.968;5.816;2023-05-11T16:37:50;100616.91;;;17.48;87.30
68994;BME280;56054;50.968;5.816;2023-05-11T16:40:50;100623.72;;;17.43;87.59
68994;BME280;56054;50.968;5.816;2023-05-11T16:43:51;100628.28;;;17.49;86.61
68994;BME280;56054;50.968;5.816;2023-05-11T16:46:51;100626.75;;;17.55;87.15
68994;BME280;56054;50.968;5.816;2023-05-11T16:49:52;100621.06;;;17.43;86.12
68994;BME280;56054;50.968;5.816;2023-05-11T16:52:52;100626.78;;;17.30;85.91
68994;BME280;56054;50.968;5.816;2023-05-11T16:55:53;100627.09;;;17.39;87.01
68994;BME280;56054;50.968;5.816;2023-05-11T16:58:54;100630.03;;;17.23;86.63
68994;BME280;56054;50.968;5.816;2023-05-11T17:01:56;100623.09;;;17.25;85.75
68994;BME280;56054;50.968;5.816;2023-05-11T17:04:56;100626.72;;;17.28;87.13
68994;BME280;56054;50.968;5.816;2023-05-11T17:07:57;100634.59;;;17.28;87.71